createdAt,value
2023-05-06T00:00:22.609Z,99
2023-05-06T00:00:52.983Z,99
2023-05-06T00:01:24.390Z,99
2023-05-06T00:01:55.616Z,99
2023-05-06T00:02:26.195Z,99
2023-05-06T00:02:58.404Z,99
2023-05-06T00:03:28.167Z,99
2023-05-06T00:03:59.774Z,99
2023-05-06T00:04:31.177Z,99
2023-05-06T00:05:02.100Z,99
2023-05-06T00:05:33.007Z,99
2023-05-06T00:06:03.326Z,99
2023-05-06T00:06:34.472Z,99
2023-05-06T00:07:05.549Z,99
2023-05-06T00:07:36.577Z,99
2023-05-06T00:08:08.157Z,99
2023-05-06T00:26:29.612Z,99
2023-05-06T00:27:08.055Z,99
2023-05-06T00:27:21.216Z,99
2023-05-06T00:27:52.477Z,99
2023-05-06T00:28:45.218Z,99
2023-05-06T00:29:05.421Z,99
2023-05-06T00:29:24.905Z,99
2023-05-06T00:29:50.044Z,99
2023-05-06T00:30:24.143Z,99
2023-05-06T00:30:57.161Z,99
2023-05-06T00:31:23.427Z,99
2023-05-06T00:32:01.615Z,99
2023-05-06T00:32:28.307Z,99
2023-05-06T00:33:06.329Z,99
2023-05-06T00:34:12.226Z,99
2023-05-06T00:35:17.765Z,99
2023-05-06T00:35:55.685Z,99
2023-05-06T00:36:03.997Z,99
2023-05-06T00:36:34.883Z,99
2023-05-06T00:37:09.790Z,99
2023-05-06T00:37:40.084Z,99
2023-05-06T00:38:07.437Z,99
2023-05-06T00:38:37.420Z,99
2023-05-06T00:39:08.392Z,99
2023-05-06T00:39:38.862Z,99
2023-05-06T00:40:10.537Z,99
2023-05-06T00:40:58.645Z,99
2023-05-06T00:41:14.692Z,99
2023-05-06T00:42:25.650Z,99
2023-05-06T00:42:52.101Z,99
2023-05-06T00:43:19.753Z,99
2023-05-06T00:43:48.189Z,99
2023-05-06T00:44:18.615Z,99
2023-05-06T00:44:49.867Z,99
2023-05-06T00:45:22.887Z,99
2023-05-06T00:45:51.121Z,99
2023-05-06T00:46:22.629Z,99
2023-05-06T00:46:53.300Z,99
2023-05-06T00:47:57.369Z,99
2023-05-06T00:48:27.958Z,99
2023-05-06T00:48:58.014Z,99
2023-05-06T00:49:28.983Z,99
2023-05-06T00:49:59.698Z,99
2023-05-06T00:50:31.935Z,99
2023-05-06T00:51:02.345Z,99
2023-05-06T00:51:32.830Z,99
2023-05-06T00:52:03.580Z,99
2023-05-06T00:52:34.217Z,99
2023-05-06T00:53:05.282Z,99
2023-05-06T00:53:37.040Z,99
2023-05-06T00:54:07.968Z,99
2023-05-06T00:54:38.681Z,99
2023-05-06T00:55:12.593Z,99
2023-05-06T00:55:39.772Z,99
2023-05-06T00:57:13.172Z,99
2023-05-06T00:57:43.696Z,99
2023-05-06T00:58:15.069Z,99
2023-05-06T00:58:46.763Z,99
2023-05-06T00:59:18.052Z,99
2023-05-06T00:59:48.845Z,99
2023-05-06T01:00:34.322Z,99
2023-05-06T01:01:20.747Z,99
2023-05-06T01:01:52.364Z,99
2023-05-06T01:02:36.249Z,99
2023-05-06T01:02:54.369Z,99
2023-05-06T01:03:25.808Z,99
2023-05-06T01:03:55.897Z,99
2023-05-06T01:04:31.902Z,99
2023-05-06T01:04:59.476Z,99
2023-05-06T01:05:30.548Z,99
2023-05-06T01:06:00.210Z,99
2023-05-06T01:06:32.552Z,99
2023-05-06T01:07:01.622Z,99
2023-05-06T01:07:32.863Z,99
2023-05-06T01:08:03.990Z,99
2023-05-06T01:08:34.741Z,99
2023-05-06T01:09:05.741Z,99
2023-05-06T01:09:37.257Z,99
2023-05-06T01:10:08.263Z,99
2023-05-06T01:10:38.524Z,99
2023-05-06T01:11:16.742Z,99
2023-05-06T01:11:42.255Z,99
2023-05-06T01:12:13.220Z,99
2023-05-06T01:12:42.614Z,99
2023-05-06T01:13:13.378Z,99
2023-05-06T01:13:45.102Z,99
2023-05-06T01:14:16.849Z,99
2023-05-06T01:14:48.092Z,99
2023-05-06T01:15:29.210Z,99
2023-05-06T01:15:48.916Z,99
2023-05-06T01:16:20.730Z,99
2023-05-06T01:16:51.797Z,99
2023-05-06T01:17:21.955Z,99
2023-05-06T01:17:52.510Z,99
2023-05-06T01:18:23.669Z,99
2023-05-06T01:19:00.351Z,99
2023-05-06T01:19:27.297Z,99
2023-05-06T01:19:57.204Z,99
2023-05-06T01:20:45.141Z,99
2023-05-06T01:20:59.552Z,99
2023-05-06T01:21:30.921Z,99
2023-05-06T01:22:01.378Z,99
2023-05-06T01:22:31.802Z,99
2023-05-06T01:23:02.452Z,99
2023-05-06T01:23:34.080Z,99
2023-05-06T01:24:05.914Z,99
2023-05-06T01:24:36.217Z,99
2023-05-06T01:25:08.474Z,99
2023-05-06T01:25:37.804Z,99
2023-05-06T01:26:09.667Z,99
2023-05-06T01:26:40.935Z,99
2023-05-06T01:27:12.456Z,99
2023-05-06T01:27:41.973Z,99
2023-05-06T01:28:13.488Z,99
2023-05-06T01:28:43.663Z,99
2023-05-06T01:29:59.711Z,99
2023-05-06T01:30:19.404Z,99
2023-05-06T01:30:48.395Z,99
2023-05-06T01:31:23.417Z,99
2023-05-06T01:31:52.304Z,99
2023-05-06T01:32:30.202Z,99
2023-05-06T01:33:11.538Z,99
2023-05-06T01:33:23.761Z,99
2023-05-06T01:33:54.608Z,99
2023-05-06T01:34:30.719Z,99
2023-05-06T01:34:56.715Z,99
2023-05-06T01:35:27.066Z,99
2023-05-06T01:35:59.371Z,99
2023-05-06T01:36:28.643Z,99
2023-05-06T01:37:02.197Z,99
2023-05-06T01:37:34.272Z,99
2023-05-06T01:38:03.728Z,99
2023-05-06T01:38:33.448Z,99
2023-05-06T01:39:04.453Z,99
2023-05-06T01:39:35.741Z,99
2023-05-06T01:40:06.834Z,99
2023-05-06T01:40:36.885Z,99
2023-05-06T01:41:09.403Z,99
2023-05-06T01:41:41.310Z,99
2023-05-06T01:42:11.105Z,99
2023-05-06T01:42:42.825Z,99
2023-05-06T01:43:12.765Z,99
2023-05-06T01:43:43.707Z,99
2023-05-06T01:44:14.523Z,99
2023-05-06T01:44:46.055Z,99
2023-05-06T01:45:16.723Z,99
2023-05-06T01:45:46.886Z,99
2023-05-06T01:46:18.055Z,99
2023-05-06T01:46:49.285Z,99
2023-05-06T01:47:20.992Z,99
2023-05-06T01:47:51.710Z,99
2023-05-06T01:48:22.193Z,99
2023-05-06T01:49:24.207Z,99
2023-05-06T01:49:55.317Z,99
2023-05-06T01:50:26.517Z,99
2023-05-06T01:50:57.104Z,99
2023-05-06T01:51:28.422Z,99
2023-05-06T01:51:58.884Z,99
2023-05-06T01:53:02.350Z,99
2023-05-06T01:53:33.825Z,99
2023-05-06T01:54:03.797Z,99
2023-05-06T01:54:52.215Z,99
2023-05-06T01:55:06.676Z,99
2023-05-06T01:55:36.146Z,99
2023-05-06T01:56:07.954Z,99
2023-05-06T01:56:38.792Z,99
2023-05-06T01:57:10.263Z,99
2023-05-06T01:57:40.949Z,99
2023-05-06T01:58:12.222Z,99
2023-05-06T01:58:42.464Z,99
2023-05-06T01:59:13.952Z,99
2023-05-06T01:59:43.947Z,99
2023-05-06T02:00:33.138Z,99
2023-05-06T02:00:46.062Z,99
2023-05-06T02:01:16.710Z,99
2023-05-06T02:01:48.904Z,99
2023-05-06T02:02:22.680Z,99
2023-05-06T02:02:50.019Z,99
2023-05-06T02:03:49.788Z,99
2023-05-06T02:04:22.914Z,99
2023-05-06T02:04:54.387Z,99
2023-05-06T02:05:25.317Z,99
2023-05-06T02:05:55.894Z,99
2023-05-06T02:06:26.832Z,99
2023-05-06T02:06:58.479Z,99
2023-05-06T02:07:31.327Z,99
2023-05-06T02:08:00.352Z,99
2023-05-06T02:08:31.944Z,99
2023-05-06T02:09:03.812Z,99
2023-05-06T02:09:33.706Z,99
2023-05-06T02:10:04.777Z,99
2023-05-06T02:10:35.107Z,99
2023-05-06T02:11:06.428Z,99
2023-05-06T02:11:37.102Z,99
2023-05-06T02:12:08.606Z,99
2023-05-06T02:12:56.157Z,99
2023-05-06T02:13:11.870Z,99
2023-05-06T02:13:42.240Z,99
2023-05-06T02:14:12.525Z,99
2023-05-06T02:14:44.376Z,99
2023-05-06T02:15:15.775Z,99
2023-05-06T02:15:44.743Z,99
2023-05-06T02:16:18.455Z,99
2023-05-06T02:16:46.953Z,99
2023-05-06T02:17:18.287Z,99
2023-05-06T02:17:49.383Z,99
2023-05-06T02:18:20.782Z,99
2023-05-06T02:18:52.385Z,99
2023-05-06T02:19:22.927Z,99
2023-05-06T02:19:53.807Z,99
2023-05-06T02:20:24.852Z,99
2023-05-06T02:20:54.969Z,99
2023-05-06T02:21:39.340Z,99
2023-05-06T02:21:56.902Z,99
2023-05-06T02:22:28.642Z,99
2023-05-06T02:22:59.392Z,99
2023-05-06T02:23:30.731Z,99
2023-05-06T02:24:02.439Z,99
2023-05-06T02:24:33.170Z,99
2023-05-06T02:25:39.920Z,99
2023-05-06T02:26:56.494Z,99
2023-05-06T03:37:03.139Z,99
2023-05-06T03:38:09.950Z,99
2023-05-06T03:38:38.786Z,99
2023-05-06T03:39:08.762Z,99
2023-05-06T03:39:41.377Z,99
2023-05-06T03:40:09.006Z,99
2023-05-06T03:40:39.638Z,99
2023-05-06T03:41:09.916Z,99
2023-05-06T03:41:43.220Z,99
2023-05-06T03:42:43.925Z,99
2023-05-06T03:43:14.391Z,99
2023-05-06T03:43:45.717Z,99
2023-05-06T03:44:16.547Z,99
2023-05-06T03:44:47.259Z,99
2023-05-06T03:45:19.056Z,99
2023-05-06T03:46:20.834Z,99
2023-05-06T03:46:52.105Z,99
2023-05-06T03:47:22.906Z,99
2023-05-06T03:47:53.728Z,99
2023-05-06T03:48:25.585Z,99
2023-05-06T03:49:04.516Z,99
2023-05-06T03:49:26.308Z,99
2023-05-06T03:49:57.618Z,99
2023-05-06T03:50:28.789Z,99
2023-05-06T03:51:30.376Z,99
2023-05-06T03:52:02.480Z,99
2023-05-06T03:52:33.921Z,99
2023-05-06T03:53:04.986Z,99
2023-05-06T03:53:34.986Z,99
2023-05-06T03:54:05.628Z,99
2023-05-06T03:54:36.757Z,99
2023-05-06T03:55:08.772Z,99
2023-05-06T03:55:48.703Z,99
2023-05-06T03:56:09.493Z,99
2023-05-06T03:56:40.427Z,99
2023-05-06T03:57:14.675Z,99
2023-05-06T03:57:43.640Z,99
2023-05-06T03:58:14.144Z,99
2023-05-06T03:58:44.889Z,99
2023-05-06T03:59:15.724Z,99
2023-05-06T04:00:26.112Z,99
2023-05-06T04:01:24.073Z,99
2023-05-06T04:01:59.576Z,99
2023-05-06T04:02:28.868Z,99
2023-05-06T04:02:58.716Z,99
2023-05-06T04:07:33.147Z,99
2023-05-06T04:08:03.426Z,99
2023-05-06T04:08:43.011Z,99
2023-05-06T04:09:04.822Z,99
2023-05-06T04:09:36.740Z,99
2023-05-06T04:10:07.489Z,99
2023-05-06T04:10:38.483Z,99
2023-05-06T04:11:27.038Z,99
2023-05-06T04:11:40.967Z,99
2023-05-06T04:12:11.073Z,99
2023-05-06T04:13:00.756Z,99
2023-05-06T04:13:12.645Z,99
2023-05-06T04:13:43.482Z,99
2023-05-06T04:14:15.632Z,99
2023-05-06T04:14:47.518Z,99
2023-05-06T04:15:16.721Z,99
2023-05-06T04:15:52.628Z,99
2023-05-06T04:16:19.883Z,99
2023-05-06T04:16:50.869Z,99
2023-05-06T04:17:20.930Z,99
2023-05-06T04:17:51.890Z,99
2023-05-06T04:18:22.829Z,99
2023-05-06T04:18:53.930Z,99
2023-05-06T04:19:24.934Z,99
2023-05-06T04:19:55.601Z,99
2023-05-06T04:20:26.743Z,99
2023-05-06T04:20:57.474Z,99
2023-05-06T04:21:29.556Z,99
2023-05-06T04:22:02.266Z,99
2023-05-06T04:22:32.776Z,99
2023-05-06T04:23:02.198Z,99
2023-05-06T04:23:32.576Z,99
2023-05-06T04:24:04.178Z,99
2023-05-06T04:24:34.933Z,99
2023-05-06T04:25:05.945Z,99
2023-05-06T04:25:36.348Z,99
2023-05-06T04:26:07.756Z,99
2023-05-06T04:27:11.557Z,99
2023-05-06T04:27:42.031Z,99
2023-05-06T04:28:13.892Z,99
2023-05-06T04:28:42.364Z,99
2023-05-06T04:29:13.952Z,99
2023-05-06T04:29:45.153Z,99
2023-05-06T04:30:16.702Z,99
2023-05-06T04:30:46.928Z,99
2023-05-06T04:31:17.925Z,99
2023-05-06T04:31:51.104Z,99
2023-05-06T04:32:21.401Z,99
2023-05-06T04:32:52.017Z,99
2023-05-06T04:33:24.263Z,99
2023-05-06T04:33:53.197Z,99
2023-05-06T04:34:23.371Z,99
2023-05-06T04:34:54.932Z,99
2023-05-06T04:35:27.177Z,99
2023-05-06T04:35:56.280Z,99
2023-05-06T04:36:27.766Z,99
2023-05-06T04:37:00.362Z,99
2023-05-06T04:37:29.668Z,99
2023-05-06T04:38:02.469Z,99
2023-05-06T04:38:33.396Z,99
2023-05-06T04:39:03.544Z,99
2023-05-06T04:39:34.512Z,99
2023-05-06T04:40:05.461Z,99
2023-05-06T04:40:36.584Z,99
2023-05-06T04:41:10.269Z,99
2023-05-06T04:41:41.235Z,99
2023-05-06T04:42:10.743Z,99
2023-05-06T04:42:40.199Z,99
2023-05-06T04:43:11.883Z,99
2023-05-06T04:43:41.604Z,99
2023-05-06T04:44:12.598Z,99
2023-05-06T04:44:43.677Z,99
2023-05-06T04:45:15.855Z,99
2023-05-06T04:45:45.672Z,99
2023-05-06T04:46:17.463Z,99
2023-05-06T04:46:50.030Z,99
2023-05-06T04:47:19.848Z,99
2023-05-06T04:47:50.048Z,99
2023-05-06T04:48:21.093Z,99
2023-05-06T04:48:58.125Z,99
2023-05-06T04:49:22.817Z,99
2023-05-06T04:49:53.792Z,99
2023-05-06T04:50:24.922Z,99
2023-05-06T04:50:55.972Z,99
2023-05-06T04:51:27.175Z,99
2023-05-06T04:51:57.969Z,99
2023-05-06T04:52:29.989Z,99
2023-05-06T04:53:00.294Z,99
2023-05-06T04:53:31.456Z,99
2023-05-06T04:54:01.684Z,99
2023-05-06T04:54:33.240Z,99
2023-05-06T04:55:03.696Z,99
2023-05-06T04:55:34.876Z,99
2023-05-06T04:56:06.071Z,99
2023-05-06T04:56:36.928Z,99
2023-05-06T04:57:09.137Z,99
2023-05-06T04:57:39.523Z,99
2023-05-06T04:58:10.827Z,99
2023-05-06T04:58:41.179Z,99
2023-05-06T04:59:12.237Z,99
2023-05-06T04:59:42.954Z,99
2023-05-06T05:00:15.395Z,99
2023-05-06T05:00:45.579Z,99
2023-05-06T05:01:16.101Z,99
2023-05-06T05:01:46.590Z,99
2023-05-06T05:02:17.455Z,99
2023-05-06T05:02:49.179Z,99
2023-05-06T05:03:20.680Z,99
2023-05-06T05:03:51.974Z,99
2023-05-06T05:04:21.845Z,99
2023-05-06T05:04:52.939Z,99
2023-05-06T05:05:24.098Z,99
2023-05-06T05:05:54.735Z,99
2023-05-06T05:06:25.503Z,99
2023-05-06T05:06:56.404Z,99
2023-05-06T05:07:27.295Z,99
2023-05-06T05:07:58.550Z,99
2023-05-06T05:08:30.459Z,99
2023-05-06T05:09:01.040Z,99
2023-05-06T05:09:31.605Z,99
2023-05-06T05:10:03.313Z,99
2023-05-06T05:10:33.696Z,99
2023-05-06T05:11:05.064Z,99
2023-05-06T05:12:12.361Z,99
2023-05-06T05:12:55.542Z,99
2023-05-06T05:13:09.073Z,99
2023-05-06T05:14:12.116Z,99
2023-05-06T05:14:42.467Z,99
2023-05-06T05:15:13.000Z,99
2023-05-06T05:15:43.980Z,99
2023-05-06T05:16:14.761Z,99
2023-05-06T05:16:45.968Z,99
2023-05-06T05:17:16.811Z,99
2023-05-06T05:17:47.354Z,99
2023-05-06T05:18:18.981Z,99
2023-05-06T05:18:50.916Z,99
2023-05-06T05:19:21.257Z,99
2023-05-06T05:20:22.730Z,99
2023-05-06T05:20:54.245Z,99
2023-05-06T05:21:25.585Z,99
2023-05-06T05:21:55.534Z,99
2023-05-06T05:22:26.524Z,99
2023-05-06T05:22:57.665Z,99
2023-05-06T05:23:28.298Z,99
2023-05-06T05:23:59.354Z,99
2023-05-06T05:24:30.944Z,99
2023-05-06T05:25:02.888Z,99
2023-05-06T05:25:33.323Z,99
2023-05-06T05:26:04.090Z,99
2023-05-06T05:26:35.228Z,99
2023-05-06T05:27:36.552Z,99
2023-05-06T05:28:07.712Z,99
2023-05-06T05:28:38.882Z,99
2023-05-06T05:29:09.639Z,99
2023-05-06T05:32:07.755Z,99
2023-05-06T05:32:21.265Z,99
2023-05-06T05:32:47.471Z,99
2023-05-06T05:33:18.539Z,99
2023-05-06T05:33:48.746Z,99
2023-05-06T05:34:19.338Z,99
2023-05-06T05:34:51.174Z,99
2023-05-06T05:35:21.844Z,99
2023-05-06T05:35:52.473Z,99
2023-05-06T05:36:25.254Z,99
2023-05-06T05:36:55.985Z,99
2023-05-06T05:37:39.797Z,99
2023-05-06T05:37:57.913Z,99
2023-05-06T05:38:28.147Z,99
2023-05-06T05:38:59.182Z,99
2023-05-06T05:39:29.686Z,99
2023-05-06T05:40:01.279Z,99
2023-05-06T05:40:35.185Z,99
2023-05-06T05:41:03.036Z,99
2023-05-06T05:41:41.492Z,99
2023-05-06T05:42:05.326Z,99
2023-05-06T05:42:53.027Z,99
2023-05-06T05:43:08.066Z,99
2023-05-06T05:43:52.447Z,99
2023-05-06T05:44:11.599Z,99
2023-05-06T05:44:40.855Z,99
2023-05-06T05:45:11.937Z,99
2023-05-06T05:45:41.910Z,99
2023-05-06T05:46:13.565Z,99
2023-05-06T05:46:44.409Z,99
2023-05-06T05:47:15.258Z,99
2023-05-06T05:47:47.154Z,99
2023-05-06T05:48:18.317Z,99
2023-05-06T05:48:48.596Z,99
2023-05-06T05:49:19.629Z,99
2023-05-06T05:49:59.366Z,99
2023-05-06T05:50:22.691Z,99
2023-05-06T05:50:52.228Z,99
2023-05-06T05:51:28.312Z,99
2023-05-06T05:51:55.112Z,99
2023-05-06T05:52:24.856Z,99
2023-05-06T05:52:59.060Z,99
2023-05-06T05:53:31.757Z,99
2023-05-06T05:53:58.667Z,99
2023-05-06T05:54:30.021Z,99
2023-05-06T05:55:01.460Z,99
2023-05-06T05:55:31.097Z,99
2023-05-06T05:56:02.117Z,99
2023-05-06T05:56:32.936Z,99
2023-05-06T05:57:03.894Z,99
2023-05-06T05:57:35.282Z,99
2023-05-06T05:58:06.930Z,99
2023-05-06T05:58:37.750Z,99
2023-05-06T05:59:08.328Z,99
2023-05-06T05:59:41.803Z,99
2023-05-06T06:00:13.448Z,99
2023-05-06T06:00:40.473Z,99
2023-05-06T06:01:30.775Z,99
2023-05-06T06:01:43.256Z,99
2023-05-06T06:02:13.882Z,99
2023-05-06T06:02:45.030Z,99
2023-05-06T06:03:16.769Z,99
2023-05-06T06:03:47.428Z,99
2023-05-06T06:04:18.325Z,99
2023-05-06T06:04:48.861Z,99
2023-05-06T06:05:19.722Z,99
2023-05-06T06:05:51.305Z,99
2023-05-06T06:06:21.723Z,99
2023-05-06T06:06:54.371Z,99
2023-05-06T06:07:24.348Z,99
2023-05-06T06:08:07.089Z,99
2023-05-06T06:08:31.616Z,99
2023-05-06T06:09:08.564Z,99
2023-05-06T06:09:28.419Z,99
2023-05-06T06:09:59.629Z,99
2023-05-06T06:10:39.398Z,99
2023-05-06T06:11:01.807Z,99
2023-05-06T06:11:34.820Z,99
2023-05-06T06:12:05.282Z,99
2023-05-06T06:12:34.112Z,99
2023-05-06T06:28:01.910Z,99
2023-05-06T06:28:35.474Z,99
2023-05-06T06:29:07.662Z,99
2023-05-06T06:29:39.733Z,99
2023-05-06T06:30:16.491Z,99
2023-05-06T06:30:40.536Z,99
2023-05-06T06:31:12.127Z,99
2023-05-06T06:31:51.902Z,99
2023-05-06T06:32:13.042Z,99
2023-05-06T06:32:43.062Z,99
2023-05-06T06:33:14.438Z,99
2023-05-06T06:33:45.340Z,99
2023-05-06T06:34:16.550Z,99
2023-05-06T06:35:08.793Z,99
2023-05-06T06:35:21.716Z,99
2023-05-06T06:35:50.940Z,99
2023-05-06T06:37:26.870Z,99
2023-05-06T06:38:08.967Z,99
2023-05-06T06:38:25.115Z,99
2023-05-06T06:38:56.037Z,99
2023-05-06T06:39:27.045Z,99
2023-05-06T06:39:57.600Z,99
2023-05-06T06:40:28.770Z,99
2023-05-06T06:41:06.248Z,99
2023-05-06T06:41:33.583Z,99
2023-05-06T06:42:03.550Z,99
2023-05-06T06:42:36.282Z,99
2023-05-06T06:43:04.150Z,99
2023-05-06T06:43:35.027Z,99
2023-05-06T06:44:05.598Z,99
2023-05-06T06:44:37.731Z,99
2023-05-06T06:45:10.314Z,99
2023-05-06T06:45:38.508Z,99
2023-05-06T06:50:17.288Z,99
2023-05-06T06:50:49.542Z,99
2023-05-06T06:51:21.554Z,99
2023-05-06T06:52:51.757Z,99
2023-05-06T06:53:25.173Z,99
2023-05-06T06:53:55.584Z,99
2023-05-06T06:54:36.137Z,99
2023-05-06T06:54:58.038Z,99
2023-05-06T06:55:27.432Z,99
2023-05-06T06:55:58.423Z,99
2023-05-06T06:56:38.262Z,99
2023-05-06T06:57:00.995Z,99
2023-05-06T06:57:36.386Z,99
2023-05-06T06:58:02.332Z,99
2023-05-06T06:58:33.652Z,99
2023-05-06T06:59:06.811Z,99
2023-05-06T06:59:38.103Z,99
2023-05-06T07:00:12.277Z,99
2023-05-06T07:00:43.809Z,99
2023-05-06T07:01:50.853Z,99
2023-05-06T07:01:53.854Z,99
2023-05-06T07:02:13.973Z,99
2023-05-06T07:02:44.744Z,98
2023-05-06T07:03:16.180Z,99
2023-05-06T07:03:43.508Z,99
2023-05-06T07:04:14.890Z,99
2023-05-06T07:04:47.079Z,98
2023-05-06T07:05:18.821Z,98
2023-05-06T07:05:48.881Z,98
2023-05-06T07:06:20.436Z,98
2023-05-06T07:07:06.402Z,98
2023-05-06T07:07:20.910Z,98
2023-05-06T07:07:52.270Z,98
2023-05-06T07:08:22.464Z,98
2023-05-06T07:08:53.553Z,98
2023-05-06T07:09:25.084Z,97
2023-05-06T07:09:55.793Z,97
2023-05-06T07:10:28.015Z,97
2023-05-06T07:10:59.682Z,96
2023-05-06T07:11:32.170Z,96
2023-05-06T07:12:00.468Z,96
2023-05-06T07:12:31.047Z,95
2023-05-06T07:13:02.050Z,96
2023-05-06T07:13:33.649Z,96
2023-05-06T07:14:04.187Z,97
2023-05-06T07:14:37.206Z,97
2023-05-06T07:15:07.601Z,97
2023-05-06T07:15:37.868Z,97
2023-05-06T07:16:09.559Z,96
2023-05-06T07:16:42.132Z,96
2023-05-06T07:17:11.674Z,94
2023-05-06T07:17:42.644Z,94
2023-05-06T07:18:16.607Z,94
2023-05-06T07:18:44.350Z,93
2023-05-06T07:19:14.996Z,94
2023-05-06T07:19:47.301Z,93
2023-05-06T07:20:18.450Z,94
2023-05-06T07:20:49.862Z,95
2023-05-06T07:21:32.656Z,94
2023-05-06T07:21:50.607Z,94
2023-05-06T07:22:21.708Z,94
2023-05-06T07:22:52.506Z,93
2023-05-06T07:23:24.607Z,95
2023-05-06T07:23:53.711Z,94
2023-05-06T07:24:26.273Z,93
2023-05-06T07:24:59.379Z,91
2023-05-06T07:25:30.789Z,91
2023-05-06T07:25:59.681Z,90
2023-05-06T07:26:29.636Z,91
2023-05-06T07:27:03.205Z,90
2023-05-06T07:27:31.760Z,91
2023-05-06T07:28:02.235Z,92
2023-05-06T07:28:33.303Z,92
2023-05-06T07:29:03.703Z,93
2023-05-06T07:29:34.573Z,92
2023-05-06T07:30:09.672Z,91
2023-05-06T07:31:54.654Z,90
2023-05-06T07:32:12.008Z,92
2023-05-06T07:32:50.903Z,91
2023-05-06T07:33:20.350Z,90
2023-05-06T07:34:14.304Z,90
2023-05-06T07:34:46.585Z,90
2023-05-06T07:35:18.503Z,91
2023-05-06T07:35:49.553Z,88
2023-05-06T07:36:19.876Z,89
2023-05-06T07:36:49.952Z,88
2023-05-06T07:37:20.293Z,89
2023-05-06T07:37:51.179Z,88
2023-05-06T07:38:22.765Z,88
2023-05-06T07:38:53.820Z,88
2023-05-06T07:39:24.366Z,90
2023-05-06T07:39:54.671Z,89
2023-05-06T07:40:26.446Z,90
2023-05-06T07:40:57.289Z,90
2023-05-06T07:41:35.270Z,91
2023-05-06T07:42:03.212Z,91
2023-05-06T07:42:31.830Z,90
2023-05-06T07:43:04.802Z,89
2023-05-06T07:43:33.168Z,89
2023-05-06T07:44:08.464Z,90
2023-05-06T07:44:34.828Z,90
2023-05-06T07:45:13.599Z,91
2023-05-06T07:45:39.234Z,91
2023-05-06T07:46:09.295Z,90
2023-05-06T07:46:38.991Z,91
2023-05-06T07:47:10.012Z,91
2023-05-06T07:47:40.062Z,92
2023-05-06T07:48:12.349Z,92
2023-05-06T07:48:46.199Z,91
2023-05-06T07:49:14.243Z,91
2023-05-06T07:49:43.442Z,91
2023-05-06T07:50:14.916Z,90
2023-05-06T07:50:51.294Z,91
2023-05-06T07:51:18.429Z,91
2023-05-06T07:51:49.600Z,89
2023-05-06T07:52:50.193Z,89
2023-05-06T07:53:22.257Z,89
2023-05-06T07:54:23.424Z,87
2023-05-06T07:54:53.440Z,88
2023-05-06T07:55:35.081Z,87
2023-05-06T07:55:57.213Z,86
2023-05-06T07:56:28.821Z,87
2023-05-06T07:56:59.003Z,84
2023-05-06T07:57:46.709Z,85
2023-05-06T07:58:00.218Z,85
2023-05-06T07:58:31.136Z,82
2023-05-06T07:59:01.865Z,84
2023-05-06T07:59:32.803Z,84
2023-05-06T08:00:04.939Z,87
2023-05-06T08:01:00.116Z,87
2023-05-06T08:01:04.759Z,85
2023-05-06T08:01:36.534Z,86
2023-05-06T08:02:06.632Z,87
2023-05-06T08:17:20.167Z,85
2023-05-06T08:17:38.082Z,85
2023-05-06T08:18:25.779Z,83
2023-05-06T08:18:40.102Z,84
2023-05-06T08:20:17.059Z,83
2023-05-06T08:21:17.277Z,82
2023-05-06T08:21:48.969Z,86
2023-05-06T08:22:21.448Z,84
2023-05-06T08:22:50.163Z,83
2023-05-06T08:23:49.977Z,82
2023-05-06T08:24:21.059Z,82
2023-05-06T08:24:59.862Z,82
2023-05-06T08:25:27.573Z,84
2023-05-06T08:25:57.193Z,86
2023-05-06T08:26:25.893Z,85
2023-05-06T08:26:57.083Z,86
2023-05-06T08:27:27.781Z,86
2023-05-06T08:27:58.504Z,84
2023-05-06T08:28:28.877Z,83
2023-05-06T08:29:00.961Z,81
2023-05-06T08:29:31.769Z,83
2023-05-06T08:30:02.893Z,82
2023-05-06T08:30:38.901Z,82
2023-05-06T08:31:05.368Z,81
2023-05-06T08:31:36.589Z,83
2023-05-06T08:32:25.313Z,85
2023-05-06T08:32:39.890Z,84
2023-05-06T08:33:09.155Z,82
2023-05-06T08:33:41.547Z,79
2023-05-06T08:34:14.609Z,80
2023-05-06T08:34:41.285Z,81
2023-05-06T08:35:28.519Z,83
2023-05-06T08:35:45.300Z,84
2023-05-06T08:36:32.887Z,83
2023-05-06T08:36:47.876Z,83
2023-05-06T08:37:19.302Z,80
2023-05-06T08:37:47.152Z,80
2023-05-06T08:38:19.344Z,82
2023-05-06T08:38:50.457Z,82
2023-05-06T08:39:20.970Z,78
2023-05-06T08:39:52.556Z,82
2023-05-06T08:40:25.337Z,82
2023-05-06T08:40:54.749Z,82
2023-05-06T08:41:24.594Z,78
2023-05-06T08:41:56.062Z,80
2023-05-06T08:42:26.295Z,78
2023-05-06T08:42:57.492Z,79
2023-05-06T08:43:30.182Z,77
2023-05-06T08:44:01.026Z,80
2023-05-06T08:44:31.567Z,80
2023-05-06T08:45:03.523Z,79
2023-05-06T08:46:04.820Z,80
2023-05-06T08:46:36.551Z,78
2023-05-06T08:47:06.478Z,82
2023-05-06T08:47:37.918Z,81
2023-05-06T08:48:09.166Z,83
2023-05-06T08:48:38.221Z,81
2023-05-06T08:49:35.472Z,80
2023-05-06T08:49:42.250Z,81
2023-05-06T08:50:13.967Z,81
2023-05-06T08:50:44.070Z,80
2023-05-06T08:51:16.587Z,83
2023-05-06T08:51:45.108Z,76
2023-05-06T08:52:15.465Z,78
2023-05-06T08:52:47.786Z,78
2023-05-06T08:53:50.727Z,80
2023-05-06T08:54:22.032Z,80
2023-05-06T08:54:52.397Z,79
2023-05-06T08:55:22.487Z,77
2023-05-06T08:55:54.537Z,76
2023-05-06T08:56:23.926Z,77
2023-05-06T08:56:55.107Z,77
2023-05-06T08:57:30.842Z,77
2023-05-06T08:57:57.994Z,77
2023-05-06T08:58:28.011Z,79
2023-05-06T08:59:02.515Z,79
2023-05-06T08:59:30.654Z,77
2023-05-06T09:00:02.653Z,77
2023-05-06T09:00:33.351Z,77
2023-05-06T09:01:02.320Z,77
2023-05-06T09:01:32.397Z,80
2023-05-06T09:02:05.018Z,74
2023-05-06T09:02:35.705Z,76
2023-05-06T09:03:06.712Z,78
2023-05-06T09:03:38.176Z,77
2023-05-06T09:04:09.539Z,76
2023-05-06T09:04:38.798Z,77
2023-05-06T09:05:11.445Z,78
2023-05-06T09:05:41.731Z,81
2023-05-06T09:06:13.249Z,77
2023-05-06T09:06:43.237Z,80
2023-05-06T09:07:15.292Z,76
2023-05-06T09:07:46.302Z,80
2023-05-06T09:08:18.009Z,75
2023-05-06T09:08:47.997Z,77
2023-05-06T09:09:37.764Z,77
2023-05-06T09:09:49.976Z,77
2023-05-06T09:10:21.720Z,75
2023-05-06T09:10:52.138Z,77
2023-05-06T09:11:22.364Z,76
2023-05-06T09:11:53.585Z,75
2023-05-06T09:12:23.808Z,78
2023-05-06T09:12:56.329Z,79
2023-05-06T09:13:26.969Z,81
2023-05-06T09:13:58.236Z,80
2023-05-06T09:14:28.559Z,81
2023-05-06T09:15:00.159Z,78
2023-05-06T09:15:30.845Z,76
2023-05-06T09:16:01.533Z,71
2023-05-06T09:16:33.065Z,74
2023-05-06T09:17:02.406Z,76
2023-05-06T09:17:34.017Z,74
2023-05-06T09:18:22.713Z,77
2023-05-06T09:18:37.520Z,77
2023-05-06T09:19:08.603Z,75
2023-05-06T09:19:38.554Z,74
2023-05-06T09:20:10.276Z,73
2023-05-06T09:20:42.517Z,72
2023-05-06T09:21:11.438Z,72
2023-05-06T09:21:42.611Z,73
2023-05-06T09:22:14.362Z,77
2023-05-06T09:22:50.913Z,74
2023-05-06T09:23:15.512Z,71
2023-05-06T09:23:46.879Z,76
2023-05-06T09:24:20.272Z,74
2023-05-06T09:24:48.833Z,69
2023-05-06T09:25:19.727Z,73
2023-05-06T09:26:06.162Z,71
2023-05-06T09:26:22.242Z,71
2023-05-06T09:26:52.425Z,72
2023-05-06T09:27:22.937Z,74
2023-05-06T09:27:54.863Z,76
2023-05-06T09:28:25.222Z,73
2023-05-06T09:29:28.534Z,75
2023-05-06T09:29:59.098Z,73
2023-05-06T09:30:29.927Z,70
2023-05-06T09:31:19.145Z,70
2023-05-06T09:31:32.299Z,73
2023-05-06T09:32:01.979Z,70
2023-05-06T09:32:32.904Z,73
2023-05-06T09:33:05.343Z,70
2023-05-06T09:33:36.169Z,67
2023-05-06T09:34:07.910Z,72
2023-05-06T09:34:37.658Z,70
2023-05-06T09:35:12.261Z,72
2023-05-06T09:35:39.744Z,71
2023-05-06T09:36:11.096Z,68
2023-05-06T09:36:42.231Z,68
2023-05-06T09:37:11.950Z,68
2023-05-06T09:37:42.757Z,66
2023-05-06T09:38:14.216Z,69
2023-05-06T09:38:45.387Z,68
2023-05-06T09:39:17.331Z,65
2023-05-06T09:39:47.809Z,63
2023-05-06T09:40:19.648Z,66
2023-05-06T09:40:51.681Z,67
2023-05-06T09:41:21.608Z,69
2023-05-06T09:41:52.101Z,65
2023-05-06T09:42:23.607Z,69
2023-05-06T09:42:53.262Z,73
2023-05-06T09:43:23.849Z,73
2023-05-06T09:43:55.550Z,74
2023-05-06T09:44:26.920Z,72
2023-05-06T09:45:01.095Z,70
2023-05-06T09:46:01.181Z,70
2023-05-06T09:46:30.968Z,69
2023-05-06T09:47:02.698Z,70
2023-05-06T09:47:31.685Z,67
2023-05-06T09:48:03.572Z,72
2023-05-06T09:48:34.395Z,73
2023-05-06T09:49:05.347Z,73
2023-05-06T09:49:36.789Z,68
2023-05-06T09:50:07.666Z,68
2023-05-06T09:50:38.935Z,69